createdAt,value
2019-02-17T00:02:25.214Z,2.47
2019-02-17T00:04:55.357Z,2.42
2019-02-17T00:07:24.869Z,2.39
2019-02-17T00:09:54.374Z,2.41
2019-02-17T00:12:24.055Z,2.40
2019-02-17T00:14:53.310Z,2.41
2019-02-17T00:17:23.191Z,2.37
2019-02-17T00:19:52.499Z,2.37
2019-02-17T00:22:22.002Z,2.33
2019-02-17T00:25:10.201Z,2.26
2019-02-17T00:27:39.701Z,2.25
2019-02-17T00:30:08.974Z,2.24
2019-02-17T00:32:38.564Z,2.26
2019-02-17T00:35:08.069Z,2.26
2019-02-17T00:37:37.596Z,2.27
2019-02-17T00:40:46.579Z,2.24
2019-02-17T00:43:16.188Z,2.21
2019-02-17T00:45:45.771Z,2.16
2019-02-17T00:48:15.227Z,2.16
2019-02-17T00:50:44.473Z,2.20
2019-02-17T00:53:13.677Z,2.21
2019-02-17T00:55:43.737Z,2.18
2019-02-17T00:58:12.937Z,2.19
2019-02-17T01:00:42.418Z,2.17
2019-02-17T01:03:11.622Z,2.09
2019-02-17T01:05:41.331Z,2.06
2019-02-17T01:08:10.909Z,2.08
2019-02-17T01:10:40.379Z,2.16
2019-02-17T01:13:10.146Z,2.26
2019-02-17T01:15:39.665Z,2.31
2019-02-17T01:18:09.154Z,2.31
2019-02-17T01:23:14.082Z,2.44
2019-02-17T01:25:43.942Z,2.48
2019-02-17T01:28:13.802Z,2.60
2019-02-17T01:33:37.827Z,2.48
2019-02-17T01:36:07.353Z,2.39
2019-02-17T01:38:36.852Z,2.35
2019-02-17T01:41:06.469Z,2.31
2019-02-17T01:43:35.963Z,2.26
2019-02-17T01:46:05.440Z,2.18
2019-02-17T01:48:34.644Z,2.12
2019-02-17T01:51:04.164Z,2.08
2019-02-17T01:53:33.971Z,2.08
2019-02-17T01:56:03.786Z,2.05
2019-02-17T01:58:33.807Z,1.97
2019-02-17T02:01:03.117Z,1.89
2019-02-17T02:03:32.648Z,1.84
2019-02-17T02:06:02.802Z,1.85
2019-02-17T02:11:20.832Z,1.88
2019-02-17T02:13:50.706Z,1.85
2019-02-17T02:16:19.920Z,1.89
2019-02-17T02:18:49.151Z,1.84
2019-02-17T02:21:18.643Z,1.85
2019-02-17T02:23:47.891Z,1.82
2019-02-17T02:26:17.372Z,1.79
2019-02-17T02:28:46.577Z,1.84
2019-02-17T02:34:30.814Z,1.89
2019-02-17T02:37:00.079Z,1.89
2019-02-17T02:39:29.565Z,1.91
2019-02-17T02:41:58.802Z,1.93
2019-02-17T02:44:28.362Z,1.97
2019-02-17T02:46:58.163Z,1.97
2019-02-17T02:49:27.945Z,2.13
2019-02-17T02:51:57.461Z,2.16
2019-02-17T02:54:26.955Z,2.15
2019-02-17T02:56:56.570Z,2.24
2019-02-17T02:59:26.095Z,2.30
2019-02-17T03:01:55.579Z,2.44
2019-02-17T03:04:25.068Z,2.58
2019-02-17T03:07:05.891Z,2.66
2019-02-17T03:09:35.106Z,2.71
2019-02-17T03:12:04.633Z,2.83
2019-02-17T03:14:33.857Z,2.85
2019-02-17T03:17:03.364Z,2.85
2019-02-17T03:19:32.917Z,2.93
2019-02-17T03:22:02.406Z,2.91
2019-02-17T03:24:31.952Z,2.98
2019-02-17T03:27:01.460Z,3.05
2019-02-17T03:29:31.218Z,3.13
2019-02-17T03:32:00.730Z,3.20
2019-02-17T03:34:29.935Z,3.30
2019-02-17T03:37:18.166Z,3.26
2019-02-17T03:39:47.396Z,3.13
2019-02-17T03:42:16.634Z,3.00
2019-02-17T03:44:45.864Z,2.90
2019-02-17T03:47:15.123Z,2.88
2019-02-17T03:49:44.591Z,2.99
2019-02-17T03:52:14.100Z,3.06
2019-02-17T03:54:43.577Z,3.13
2019-02-17T03:57:13.343Z,3.17
2019-02-17T03:59:42.582Z,3.18
2019-02-17T04:02:11.823Z,3.06
2019-02-17T04:04:41.018Z,2.94
2019-02-17T04:07:10.263Z,2.82
2019-02-17T04:09:40.049Z,2.65
2019-02-17T04:12:09.543Z,2.50
2019-02-17T04:14:38.747Z,2.42
2019-02-17T04:17:08.256Z,2.29
2019-02-17T04:19:37.494Z,2.32
2019-02-17T04:22:07.148Z,2.21
2019-02-17T04:24:36.346Z,2.17
2019-02-17T04:27:05.837Z,2.09
2019-02-17T04:29:35.046Z,2.07
2019-02-17T04:32:04.544Z,1.99
2019-02-17T04:34:33.743Z,2.47
2019-02-17T04:37:03.008Z,2.99
2019-02-17T04:39:32.492Z,3.21
2019-02-17T04:42:02.003Z,3.39
2019-02-17T04:44:31.475Z,3.42
2019-02-17T04:47:01.093Z,3.50
2019-02-17T04:49:30.695Z,3.57
2019-02-17T04:52:00.219Z,3.41
2019-02-17T04:54:29.701Z,3.34
2019-02-17T04:56:58.921Z,3.21
2019-02-17T04:59:28.685Z,3.11
2019-02-17T05:01:57.918Z,3.10
2019-02-17T05:04:27.126Z,3.00
2019-02-17T05:06:56.362Z,3.06
2019-02-17T05:09:25.837Z,3.05
2019-02-17T05:11:55.431Z,3.13
2019-02-17T05:14:25.323Z,3.22
2019-02-17T05:16:54.867Z,3.28
2019-02-17T05:19:24.743Z,3.27
2019-02-17T05:21:54.011Z,3.30
2019-02-17T05:24:23.924Z,3.36
2019-02-17T05:26:53.810Z,3.41
2019-02-17T05:29:23.303Z,3.39
2019-02-17T05:31:54.110Z,3.40
2019-02-17T05:34:23.346Z,3.43
2019-02-17T05:36:52.959Z,3.42
2019-02-17T05:39:22.462Z,3.49
2019-02-17T05:41:52.019Z,3.43
2019-02-17T05:44:21.215Z,3.36
2019-02-17T05:46:50.846Z,3.28
2019-02-17T05:49:20.358Z,3.21
2019-02-17T05:51:49.838Z,3.04
2019-02-17T05:54:19.672Z,2.94
2019-02-17T05:56:49.189Z,2.94
2019-02-17T05:59:18.676Z,2.84
2019-02-17T06:01:48.195Z,2.77
2019-02-17T06:04:17.684Z,2.66
2019-02-17T06:07:06.247Z,2.54
2019-02-17T06:09:35.729Z,2.49
2019-02-17T06:12:05.239Z,2.40
2019-02-17T06:14:34.482Z,2.25
2019-02-17T06:17:03.994Z,2.13
2019-02-17T06:19:33.861Z,2.10
2019-02-17T06:22:05.128Z,2.11
2019-02-17T06:24:34.750Z,2.17
2019-02-17T06:27:04.526Z,2.08
2019-02-17T06:29:34.034Z,2.08
2019-02-17T06:32:03.350Z,2.08
2019-02-17T06:34:32.855Z,2.10
2019-02-17T06:37:02.447Z,2.11
2019-02-17T06:39:31.980Z,2.07
2019-02-17T06:42:01.747Z,2.23
2019-02-17T06:44:31.509Z,2.21
2019-02-17T06:49:42.273Z,2.21
2019-02-17T06:52:11.517Z,2.40
2019-02-17T06:57:35.428Z,2.41
2019-02-17T07:00:24.158Z,2.63
2019-02-17T07:02:53.674Z,2.85
2019-02-17T07:05:42.103Z,3.07
2019-02-17T07:08:12.070Z,3.13
2019-02-17T07:10:41.543Z,3.19
2019-02-17T07:13:11.087Z,3.27
2019-02-17T07:15:40.548Z,3.36
2019-02-17T07:18:09.782Z,3.32
2019-02-17T07:20:38.996Z,3.07
2019-02-17T07:23:08.250Z,3.18
2019-02-17T07:25:38.170Z,3.29
2019-02-17T07:28:07.963Z,3.35
2019-02-17T07:30:37.441Z,3.39
2019-02-17T07:33:07.328Z,3.32
2019-02-17T07:35:44.522Z,3.32
2019-02-17T07:38:14.440Z,3.36
2019-02-17T07:40:43.846Z,3.40
2019-02-17T07:43:13.628Z,3.47
2019-02-17T07:45:43.140Z,3.56
2019-02-17T07:48:12.650Z,3.65
2019-02-17T07:50:42.150Z,3.72
2019-02-17T07:53:12.074Z,3.82
2019-02-17T07:55:41.291Z,3.95
2019-02-17T07:58:10.526Z,4.11
2019-02-17T08:00:40.008Z,4.29
2019-02-17T08:03:09.631Z,4.46
2019-02-17T08:05:39.088Z,4.59
2019-02-17T08:08:08.304Z,4.73
2019-02-17T08:10:37.796Z,4.84
2019-02-17T08:13:07.305Z,4.89
2019-02-17T08:15:36.803Z,4.96
2019-02-17T08:18:06.304Z,5.01
2019-02-17T08:20:36.670Z,5.08
2019-02-17T08:23:07.336Z,5.21
2019-02-17T08:25:36.763Z,5.31
2019-02-17T08:28:06.268Z,5.41
2019-02-17T08:30:36.423Z,5.44
2019-02-17T08:33:05.943Z,5.54
2019-02-17T08:35:35.416Z,5.59
2019-02-17T08:38:04.651Z,5.69
2019-02-17T08:40:33.865Z,5.66
2019-02-17T08:43:03.336Z,5.76
2019-02-17T08:45:32.819Z,5.85
2019-02-17T08:48:02.294Z,6.00
2019-02-17T08:50:51.350Z,6.27
2019-02-17T08:53:20.577Z,6.94
2019-02-17T08:55:50.065Z,7.67
2019-02-17T08:58:19.583Z,8.20
2019-02-17T09:00:49.066Z,8.30
2019-02-17T09:03:18.549Z,8.09
2019-02-17T09:05:48.064Z,7.93
2019-02-17T09:08:17.308Z,7.79
2019-02-17T09:10:46.807Z,7.74
2019-02-17T09:13:18.491Z,7.72
2019-02-17T09:15:47.518Z,7.72
2019-02-17T09:18:16.712Z,7.75
2019-02-17T09:20:45.943Z,7.73
2019-02-17T09:23:15.426Z,7.75
2019-02-17T09:25:44.920Z,7.81
2019-02-17T09:28:14.135Z,7.96
2019-02-17T09:30:43.368Z,8.11
2019-02-17T09:33:12.585Z,8.25
2019-02-17T09:35:41.814Z,8.35
2019-02-17T09:38:11.755Z,8.42
2019-02-17T09:40:41.077Z,8.49
2019-02-17T09:43:10.628Z,8.57
2019-02-17T09:45:39.864Z,8.64
2019-02-17T09:48:09.537Z,8.76
2019-02-17T09:50:39.066Z,8.82
2019-02-17T09:53:09.018Z,8.87
2019-02-17T09:58:13.301Z,8.96
2019-02-17T10:00:43.392Z,9.06
2019-02-17T10:03:13.383Z,9.16
2019-02-17T10:05:42.634Z,9.30
2019-02-17T10:08:12.096Z,9.47
2019-02-17T10:11:00.660Z,9.56
2019-02-17T10:13:30.139Z,9.69
2019-02-17T10:15:59.706Z,9.86
2019-02-17T10:18:29.328Z,9.99
2019-02-17T10:20:59.843Z,10.12
2019-02-17T10:23:29.063Z,10.24
2019-02-17T10:25:58.383Z,10.38
2019-02-17T10:28:28.139Z,10.45
2019-02-17T10:30:57.383Z,10.62
2019-02-17T10:33:27.250Z,10.73
2019-02-17T10:35:56.864Z,10.80
2019-02-17T10:38:26.106Z,10.90
2019-02-17T10:40:55.632Z,10.94
2019-02-17T10:43:25.626Z,10.97
2019-02-17T10:45:55.160Z,11.10
2019-02-17T10:48:24.378Z,11.15
2019-02-17T10:50:53.738Z,11.19
2019-02-17T10:53:22.949Z,11.26
2019-02-17T10:55:52.444Z,11.27
2019-02-17T10:58:21.947Z,11.37
2019-02-17T11:00:51.887Z,11.38
2019-02-17T11:03:21.868Z,11.43
2019-02-17T11:05:51.694Z,11.50
2019-02-17T11:08:21.547Z,11.56
2019-02-17T11:10:51.256Z,11.67
2019-02-17T11:13:21.079Z,11.83
2019-02-17T11:15:50.606Z,11.90
2019-02-17T11:18:20.090Z,11.95
2019-02-17T11:20:50.009Z,12.02
2019-02-17T11:23:19.797Z,12.11
2019-02-17T11:25:49.022Z,12.23
2019-02-17T11:28:18.278Z,12.29
2019-02-17T11:30:47.569Z,12.38
2019-02-17T11:33:17.362Z,12.40
2019-02-17T11:35:47.041Z,12.44
2019-02-17T11:38:16.594Z,12.54
2019-02-17T11:40:45.832Z,12.59
2019-02-17T11:43:15.063Z,12.64
2019-02-17T11:45:44.290Z,12.73
2019-02-17T11:48:13.763Z,12.80
2019-02-17T11:50:42.997Z,12.90
2019-02-17T11:53:12.456Z,12.94
2019-02-17T11:55:42.043Z,13.00
2019-02-17T11:58:11.293Z,13.06
2019-02-17T12:00:40.793Z,13.15
2019-02-17T12:03:10.015Z,13.24
2019-02-17T12:05:39.243Z,13.33
2019-02-17T12:08:08.775Z,13.41
2019-02-17T12:10:37.996Z,13.53
2019-02-17T12:13:07.516Z,13.62
2019-02-17T12:15:36.702Z,13.73
2019-02-17T12:18:05.920Z,13.83
2019-02-17T12:20:54.088Z,13.99
2019-02-17T12:23:42.245Z,14.04
2019-02-17T12:26:30.426Z,14.11
2019-02-17T12:29:18.564Z,14.04
2019-02-17T12:31:48.400Z,14.17
2019-02-17T12:34:17.628Z,14.35
2019-02-17T12:36:46.893Z,14.41
2019-02-17T12:39:16.101Z,14.48
2019-02-17T12:41:45.363Z,14.60
2019-02-17T12:44:14.707Z,14.69
2019-02-17T12:46:44.342Z,14.79
2019-02-17T12:49:13.576Z,14.87
2019-02-17T12:51:43.144Z,14.94
2019-02-17T12:54:12.664Z,15.01
2019-02-17T12:56:42.311Z,15.08
2019-02-17T12:59:11.530Z,15.13
2019-02-17T13:01:40.916Z,15.15
2019-02-17T13:04:10.134Z,15.23
2019-02-17T13:06:39.391Z,15.33
2019-02-17T13:09:27.695Z,15.55
2019-02-17T13:11:57.012Z,15.62
2019-02-17T13:14:26.228Z,15.63
2019-02-17T13:16:55.505Z,15.64
2019-02-17T13:19:25.088Z,15.64
2019-02-17T13:21:54.362Z,15.61
2019-02-17T13:24:23.725Z,15.62
2019-02-17T13:26:52.975Z,15.67
2019-02-17T13:29:22.220Z,15.91
2019-02-17T13:31:51.455Z,16.08
2019-02-17T13:34:20.690Z,16.23
2019-02-17T13:36:50.297Z,16.34
2019-02-17T13:39:19.825Z,16.33
2019-02-17T13:41:49.117Z,16.33
2019-02-17T13:44:39.812Z,16.25
2019-02-17T13:47:09.118Z,16.68
2019-02-17T13:55:31.703Z,18.60
2019-02-17T13:58:20.561Z,18.60
2019-02-17T14:01:08.848Z,19.59
2019-02-17T14:03:48.297Z,19.59
2019-02-17T14:06:12.808Z,20.76
2019-02-17T14:08:42.786Z,21.66
2019-02-17T14:11:12.279Z,22.16
2019-02-17T14:13:41.858Z,22.47
2019-02-17T14:16:11.431Z,22.90
2019-02-17T14:18:40.731Z,22.98
2019-02-17T14:21:10.241Z,23.09
2019-02-17T14:23:39.473Z,21.72
2019-02-17T14:26:08.991Z,22.61
2019-02-17T14:28:40.498Z,23.33
2019-02-17T14:31:09.733Z,23.65
2019-02-17T14:33:39.208Z,24.09
2019-02-17T14:36:08.404Z,24.39
2019-02-17T14:38:38.129Z,24.75
2019-02-17T14:41:07.603Z,24.77
2019-02-17T14:43:36.952Z,24.79
2019-02-17T14:46:06.130Z,25.19
2019-02-17T14:48:35.362Z,25.23
2019-02-17T14:51:04.566Z,24.97
2019-02-17T14:53:33.845Z,25.12
2019-02-17T14:56:03.459Z,25.05
2019-02-17T14:58:33.405Z,24.29
2019-02-17T15:01:02.613Z,23.09
2019-02-17T15:03:32.686Z,21.91
2019-02-17T15:06:02.020Z,22.49
2019-02-17T15:08:31.534Z,23.43
2019-02-17T15:11:02.987Z,23.30
2019-02-17T15:13:32.621Z,22.01
2019-02-17T15:16:02.391Z,20.37
2019-02-17T15:18:31.623Z,21.19
2019-02-17T15:21:01.145Z,21.89
2019-02-17T15:23:30.443Z,20.79
2019-02-17T15:25:59.725Z,21.68
2019-02-17T15:28:29.282Z,22.06
2019-02-17T15:30:58.609Z,22.27
2019-02-17T15:33:27.838Z,21.41
2019-02-17T15:35:57.333Z,20.21
2019-02-17T15:38:26.588Z,20.39
2019-02-17T15:40:56.566Z,20.13
2019-02-17T15:43:27.155Z,19.56
2019-02-17T15:45:56.633Z,19.27
2019-02-17T15:48:26.483Z,19.26
2019-02-17T15:50:55.974Z,19.26
2019-02-17T15:53:25.597Z,19.05
2019-02-17T15:55:54.900Z,17.86
2019-02-17T15:58:44.981Z,17.71
2019-02-17T16:01:18.098Z,17.76
2019-02-17T16:03:48.063Z,17.38
2019-02-17T16:06:18.694Z,16.86
2019-02-17T16:08:48.636Z,16.45
2019-02-17T16:14:26.706Z,15.83
2019-02-17T16:16:56.368Z,15.59
2019-02-17T16:19:25.799Z,15.18
2019-02-17T16:21:55.355Z,15.03
2019-02-17T16:24:24.928Z,14.91
2019-02-17T16:26:54.482Z,14.76
2019-02-17T16:29:23.706Z,14.12
2019-02-17T16:31:53.087Z,13.65
2019-02-17T16:34:22.271Z,13.35
2019-02-17T16:39:39.744Z,13.21
2019-02-17T16:42:08.947Z,13.05
2019-02-17T16:47:36.548Z,12.93
2019-02-17T16:50:07.096Z,12.65
2019-02-17T16:52:36.781Z,12.50
2019-02-17T16:55:06.773Z,12.44
2019-02-17T16:57:37.010Z,12.23
2019-02-17T17:00:07.468Z,12.15
2019-02-17T17:02:36.826Z,12.10
2019-02-17T17:05:06.224Z,12.09
2019-02-17T17:07:35.476Z,12.01
2019-02-17T17:13:19.497Z,12.07
2019-02-17T17:15:48.858Z,12.09
2019-02-17T17:18:18.375Z,12.06
2019-02-17T17:20:47.671Z,12.24
2019-02-17T17:23:17.239Z,12.29
2019-02-17T17:25:47.042Z,12.30
2019-02-17T17:28:36.762Z,12.48
2019-02-17T17:31:06.002Z,12.29
2019-02-17T17:33:35.288Z,12.03
2019-02-17T17:36:23.636Z,11.73
2019-02-17T17:41:41.201Z,11.07
2019-02-17T17:44:10.825Z,10.85
2019-02-17T17:46:40.171Z,10.67
2019-02-17T17:49:18.856Z,10.65
2019-02-17T17:52:00.144Z,10.55
2019-02-17T17:54:29.416Z,10.42
2019-02-17T17:56:58.923Z,10.39
2019-02-17T17:59:28.457Z,10.28
2019-02-17T18:01:58.444Z,10.03
2019-02-17T18:04:46.785Z,9.91
2019-02-17T18:07:16.107Z,10.05
2019-02-17T18:09:45.619Z,10.57
2019-02-17T18:12:14.954Z,10.57
2019-02-17T18:14:44.884Z,10.68
2019-02-17T18:17:14.443Z,10.92
2019-02-17T18:19:44.091Z,11.03
2019-02-17T18:22:13.974Z,11.06
2019-02-17T18:25:02.285Z,10.88
2019-02-17T18:27:31.531Z,10.75
2019-02-17T18:30:00.784Z,10.71
2019-02-17T18:32:30.041Z,10.58
2019-02-17T18:34:59.382Z,10.18
2019-02-17T18:40:11.435Z,9.63
2019-02-17T18:42:40.686Z,9.27
2019-02-17T18:45:29.641Z,8.95
2019-02-17T18:48:17.918Z,8.64
2019-02-17T18:50:48.084Z,8.41
2019-02-17T18:53:18.258Z,8.21
2019-02-17T18:55:47.848Z,8.00
2019-02-17T18:58:17.080Z,7.98
2019-02-17T19:00:46.970Z,8.04
2019-02-17T19:03:16.230Z,8.37
2019-02-17T19:05:46.149Z,8.52
2019-02-17T19:08:15.483Z,8.63
2019-02-17T19:10:44.727Z,8.88
2019-02-17T19:13:33.030Z,9.11
2019-02-17T19:16:02.819Z,9.19
2019-02-17T19:18:32.365Z,9.21
2019-02-17T19:21:01.948Z,9.26
2019-02-17T19:23:31.560Z,9.21
2019-02-17T19:26:01.161Z,9.00
2019-02-17T19:28:30.737Z,8.76
2019-02-17T19:31:19.033Z,8.57
2019-02-17T19:33:48.287Z,8.44
2019-02-17T19:36:17.890Z,8.31
2019-02-17T19:38:47.405Z,8.24
2019-02-17T19:41:36.092Z,8.20
2019-02-17T20:04:15.846Z,7.15
2019-02-17T20:06:46.301Z,7.13
2019-02-17T20:09:41.969Z,7.09
2019-02-17T20:19:42.903Z,6.65
2019-02-17T20:22:12.205Z,6.50
2019-02-17T20:24:41.433Z,6.45
2019-02-17T20:30:27.311Z,6.38
2019-02-17T20:32:56.855Z,6.58
2019-02-17T20:35:26.669Z,6.60
2019-02-17T20:37:56.503Z,6.70
2019-02-17T20:40:26.200Z,6.73
2019-02-17T20:42:55.429Z,6.84
2019-02-17T20:45:24.653Z,6.92
2019-02-17T20:47:54.257Z,6.92
2019-02-17T20:50:23.901Z,6.97
2019-02-17T20:52:53.598Z,6.97
2019-02-17T20:55:43.741Z,6.87
2019-02-17T20:58:32.039Z,6.88
2019-02-17T21:01:01.629Z,6.81
2019-02-17T21:03:30.889Z,6.58
2019-02-17T21:06:00.569Z,6.45
2019-02-17T21:08:30.072Z,6.31
2019-02-17T21:10:59.594Z,6.44
2019-02-17T21:13:29.440Z,6.51
2019-02-17T21:15:58.713Z,6.35
2019-02-17T21:18:28.629Z,6.26
2019-02-17T21:20:58.197Z,6.21
2019-02-17T21:23:27.463Z,6.31
2019-02-17T21:25:57.116Z,6.26
2019-02-17T21:28:26.657Z,6.21
2019-02-17T21:30:56.438Z,6.07
2019-02-17T21:33:25.683Z,5.94
2019-02-17T21:38:50.036Z,5.70
2019-02-17T21:41:20.316Z,5.63
2019-02-17T21:43:50.526Z,5.75
2019-02-17T21:46:39.215Z,5.90
2019-02-17T21:49:08.873Z,6.20
2019-02-17T21:51:38.214Z,6.34
2019-02-17T21:54:07.880Z,6.54
2019-02-17T21:56:37.450Z,6.77
2019-02-17T21:59:25.739Z,6.77
2019-02-17T22:01:56.086Z,6.68
2019-02-17T22:05:03.275Z,6.28
2019-02-17T22:07:35.047Z,5.88
2019-02-17T22:13:04.130Z,5.37
2019-02-17T22:15:33.403Z,5.22
2019-02-17T22:18:04.147Z,5.17
2019-02-17T22:20:34.034Z,5.20
2019-02-17T22:23:03.735Z,5.27
2019-02-17T22:25:33.443Z,5.36
2019-02-17T22:28:03.098Z,5.65
2019-02-17T22:30:32.812Z,5.68
2019-02-17T22:33:02.459Z,5.46
2019-02-17T22:35:31.707Z,5.44
2019-02-17T22:38:19.923Z,5.49
2019-02-17T22:40:49.111Z,5.34
2019-02-17T22:43:18.353Z,5.13
2019-02-17T22:45:47.856Z,4.84
2019-02-17T22:48:17.142Z,4.66
2019-02-17T22:50:46.341Z,4.43
2019-02-17T22:53:15.596Z,4.30
2019-02-17T22:55:45.217Z,4.34
2019-02-17T22:58:14.437Z,4.32
2019-02-17T23:01:03.133Z,4.30
2019-02-17T23:03:33.692Z,4.21
2019-02-17T23:06:02.937Z,4.14
2019-02-17T23:08:32.186Z,4.07
2019-02-17T23:11:01.482Z,4.04
2019-02-17T23:13:31.248Z,4.01
2019-02-17T23:16:00.859Z,4.05
2019-02-17T23:18:30.167Z,4.24
2019-02-17T23:20:59.732Z,4.00
2019-02-17T23:23:29.649Z,3.83
2019-02-17T23:25:58.845Z,3.78
2019-02-17T23:28:28.402Z,3.64
2019-02-17T23:33:45.938Z,3.43
2019-02-17T23:36:15.420Z,3.38
2019-02-17T23:38:44.756Z,3.34
2019-02-17T23:41:14.185Z,3.35
2019-02-17T23:43:43.416Z,3.32
2019-02-17T23:46:12.640Z,3.36
2019-02-17T23:49:00.938Z,3.45
2019-02-17T23:51:30.144Z,3.44
2019-02-17T23:53:59.360Z,3.52
2019-02-17T23:56:28.558Z,3.54
2019-02-17T23:58:57.803Z,3.44
